createdAt,value
2022-11-16T00:00:04.262Z,4.75
2022-11-16T00:02:32.715Z,15.20
2022-11-16T00:04:59.520Z,5.68
2022-11-16T00:07:26.242Z,1.00
2022-11-16T00:09:52.961Z,10.20
2022-11-16T00:12:19.718Z,5.50
2022-11-16T00:14:46.446Z,10.05
2022-11-16T00:17:13.131Z,6.47
2022-11-16T00:19:39.814Z,21.30
2022-11-16T00:22:06.533Z,11.05
2022-11-16T00:24:33.226Z,8.35
2022-11-16T00:26:59.941Z,10.15
2022-11-16T00:29:26.889Z,2.13
2022-11-16T00:31:53.876Z,18.23
2022-11-16T00:34:20.921Z,4.57
2022-11-16T00:36:47.627Z,5.30
2022-11-16T00:39:15.188Z,8.70
2022-11-16T00:41:42.249Z,2.85
2022-11-16T00:44:09.317Z,20.90
2022-11-16T00:46:36.010Z,1.70
2022-11-16T00:49:02.855Z,2.25
2022-11-16T00:51:29.579Z,320.30
2022-11-16T00:53:56.299Z,273.02
2022-11-16T00:56:23.103Z,90.50
2022-11-16T00:58:49.847Z,305.27
2022-11-16T01:01:16.587Z,268.35
2022-11-16T01:03:43.372Z,265.55
2022-11-16T01:06:12.371Z,274.77
2022-11-16T01:08:39.544Z,178.25
2022-11-16T01:11:06.571Z,296.48
2022-11-16T01:13:33.258Z,221.93
2022-11-16T01:15:59.913Z,244.98
2022-11-16T01:18:26.986Z,214.55
2022-11-16T01:20:53.702Z,204.57
2022-11-16T01:23:20.364Z,75.65
2022-11-16T01:25:47.055Z,32.70
2022-11-16T01:28:13.755Z,6.47
2022-11-16T01:30:40.406Z,17.92
2022-11-16T01:33:07.136Z,4.18
2022-11-16T01:35:33.808Z,190.65
2022-11-16T01:38:00.486Z,120.63
2022-11-16T01:40:27.626Z,66.53
2022-11-16T01:42:56.796Z,58.05
2022-11-16T01:45:38.266Z,77.60
2022-11-16T01:48:05.113Z,50.10
2022-11-16T01:50:31.817Z,36.72
2022-11-16T01:53:00.716Z,17.20
2022-11-16T01:55:28.080Z,46.53
2022-11-16T01:57:56.796Z,35.92
2022-11-16T02:00:23.637Z,4.57
2022-11-16T02:02:50.429Z,13.05
2022-11-16T02:05:20.396Z,4.25
2022-11-16T02:07:57.149Z,4.00
2022-11-16T02:10:35.898Z,9.95
2022-11-16T02:13:18.972Z,22.35
2022-11-16T02:18:32.429Z,5.78
2022-11-16T02:21:33.545Z,2.38
2022-11-16T02:24:21.810Z,3.78
2022-11-16T02:27:03.392Z,6.18
2022-11-16T02:29:37.751Z,4.57
2022-11-16T02:32:16.478Z,5.75
2022-11-16T02:34:44.824Z,4.10
2022-11-16T02:37:12.104Z,6.35
2022-11-16T02:39:39.192Z,20.85
2022-11-16T02:42:08.317Z,18.60
2022-11-16T02:44:36.678Z,4.82
2022-11-16T02:47:06.158Z,1.20
2022-11-16T02:49:34.959Z,4.65
2022-11-16T02:52:01.700Z,9.25
2022-11-16T02:54:28.407Z,11.82
2022-11-16T02:57:16.252Z,11.07
2022-11-16T02:59:44.376Z,15.32
2022-11-16T03:02:33.860Z,6.03
2022-11-16T03:05:23.394Z,4.68
2022-11-16T03:08:02.160Z,5.57
2022-11-16T03:10:28.879Z,11.30
2022-11-16T03:12:55.558Z,17.30
2022-11-16T03:15:22.242Z,15.88
2022-11-16T03:17:48.921Z,1.73
2022-11-16T03:20:18.022Z,12.20
2022-11-16T03:22:46.085Z,16.20
2022-11-16T03:25:14.420Z,4.13
2022-11-16T03:27:44.610Z,3.80
2022-11-16T03:30:13.363Z,12.00
2022-11-16T03:32:43.108Z,22.83
2022-11-16T03:35:30.155Z,13.82
2022-11-16T03:37:57.617Z,13.27
2022-11-16T03:40:25.164Z,9.52
2022-11-16T03:42:51.815Z,3.25
2022-11-16T03:45:18.753Z,12.93
2022-11-16T03:47:45.501Z,3.65
2022-11-16T03:50:12.264Z,18.95
2022-11-16T03:52:39.002Z,7.38
2022-11-16T03:55:05.966Z,14.13
2022-11-16T03:57:32.641Z,11.18
2022-11-16T03:59:59.339Z,19.73
2022-11-16T04:02:26.095Z,2.15
2022-11-16T04:04:52.742Z,15.63
2022-11-16T04:07:19.468Z,2.45
2022-11-16T04:09:46.203Z,7.55
2022-11-16T04:12:12.889Z,1.52
2022-11-16T04:14:40.921Z,2.83
2022-11-16T04:17:14.887Z,6.65
2022-11-16T04:19:41.537Z,10.82
2022-11-16T04:22:20.120Z,1.30
2022-11-16T04:24:48.989Z,1.05
2022-11-16T04:27:15.632Z,24.38
2022-11-16T04:29:42.306Z,7.18
2022-11-16T04:32:08.959Z,2.10
2022-11-16T04:34:35.615Z,0.65
2022-11-16T04:37:02.275Z,3.38
2022-11-16T04:39:28.950Z,5.68
2022-11-16T04:41:55.590Z,5.55
2022-11-16T04:44:27.289Z,9.02
2022-11-16T04:46:56.481Z,25.83
2022-11-16T04:49:23.185Z,0.93
2022-11-16T04:51:49.839Z,5.03
2022-11-16T04:54:16.589Z,13.93
2022-11-16T04:56:43.429Z,5.57
2022-11-16T04:59:10.251Z,4.03
2022-11-16T05:01:37.037Z,14.38
2022-11-16T05:04:04.005Z,7.45
2022-11-16T05:06:30.717Z,5.80
2022-11-16T05:08:57.368Z,2.95
2022-11-16T05:11:24.203Z,10.07
2022-11-16T05:13:50.910Z,8.30
2022-11-16T05:16:19.217Z,2.35
2022-11-16T05:18:45.899Z,2.00
2022-11-16T05:21:12.580Z,4.60
2022-11-16T05:23:39.245Z,6.50
2022-11-16T05:26:05.989Z,2.92
2022-11-16T05:28:32.891Z,13.25
2022-11-16T05:30:59.828Z,15.77
2022-11-16T05:33:26.479Z,0.82
2022-11-16T05:35:53.179Z,1.40
2022-11-16T05:38:19.896Z,4.32
2022-11-16T05:40:46.825Z,6.38
2022-11-16T05:43:13.498Z,3.80
2022-11-16T05:45:40.211Z,6.55
2022-11-16T05:48:06.859Z,14.60
2022-11-16T05:50:35.416Z,0.93
2022-11-16T05:53:05.290Z,2.50
2022-11-16T05:55:32.029Z,5.78
2022-11-16T05:57:58.688Z,9.43
2022-11-16T06:00:25.338Z,1.70
2022-11-16T06:02:52.026Z,9.75
2022-11-16T06:05:18.766Z,4.50
2022-11-16T06:07:46.322Z,5.00
2022-11-16T06:10:14.090Z,24.55
2022-11-16T06:12:40.839Z,7.15
2022-11-16T06:15:07.785Z,5.60
2022-11-16T06:17:34.704Z,4.00
2022-11-16T06:20:01.361Z,8.32
2022-11-16T06:22:28.073Z,27.23
2022-11-16T06:24:54.731Z,9.73
2022-11-16T06:27:21.423Z,2.60
2022-11-16T06:29:48.063Z,8.20
2022-11-16T06:32:14.749Z,3.33
2022-11-16T06:34:41.459Z,4.40
2022-11-16T06:37:08.152Z,11.57
2022-11-16T06:39:34.802Z,16.98
2022-11-16T06:42:01.471Z,11.02
2022-11-16T06:44:28.127Z,3.47
2022-11-16T06:46:54.785Z,8.70
2022-11-16T06:49:21.448Z,6.38
2022-11-16T06:51:48.187Z,11.23
2022-11-16T06:54:14.880Z,6.82
2022-11-16T06:56:41.876Z,21.75
2022-11-16T06:59:08.541Z,8.82
2022-11-16T07:01:35.699Z,32.20
2022-11-16T07:04:02.385Z,7.75
2022-11-16T07:06:29.500Z,12.57
2022-11-16T07:08:56.162Z,14.80
2022-11-16T07:11:22.857Z,17.30
2022-11-16T07:13:49.520Z,18.42
2022-11-16T07:16:16.298Z,16.92
2022-11-16T07:18:42.965Z,4.15
2022-11-16T07:21:11.431Z,15.60
2022-11-16T07:23:38.288Z,6.72
2022-11-16T07:26:05.695Z,14.15
2022-11-16T07:28:32.787Z,6.15
2022-11-16T07:31:07.145Z,16.00
2022-11-16T07:33:34.498Z,6.05
2022-11-16T07:36:06.080Z,1.40
2022-11-16T07:38:33.183Z,6.25
2022-11-16T07:41:07.768Z,3.05
2022-11-16T07:43:34.619Z,8.23
2022-11-16T07:46:44.525Z,5.90
2022-11-16T07:48:55.231Z,11.40
2022-11-16T07:51:21.907Z,5.80
2022-11-16T07:53:48.639Z,41.40
2022-11-16T07:56:15.382Z,11.90
2022-11-16T07:58:42.151Z,9.20
2022-11-16T08:01:10.445Z,12.60
2022-11-16T08:03:37.336Z,21.08
2022-11-16T08:06:11.930Z,30.98
2022-11-16T08:08:38.741Z,3.35
2022-11-16T08:11:06.837Z,10.25
2022-11-16T08:13:34.455Z,13.45
2022-11-16T08:16:01.906Z,22.15
2022-11-16T08:18:29.481Z,5.93
2022-11-16T08:20:58.404Z,3.35
2022-11-16T08:23:25.205Z,11.95
2022-11-16T08:25:51.899Z,2.08
2022-11-16T08:28:18.568Z,16.70
2022-11-16T08:30:48.435Z,6.13
2022-11-16T08:33:19.178Z,13.90
2022-11-16T08:35:45.899Z,1.73
2022-11-16T08:38:12.548Z,8.02
2022-11-16T08:40:39.239Z,26.38
2022-11-16T08:43:05.940Z,3.80
2022-11-16T08:45:32.883Z,7.78
2022-11-16T08:48:04.074Z,10.15
2022-11-16T08:50:33.571Z,7.13
2022-11-16T08:53:11.116Z,4.97
2022-11-16T08:55:37.818Z,9.15
2022-11-16T08:58:04.534Z,4.43
2022-11-16T09:00:31.219Z,2.28
2022-11-16T09:02:57.970Z,3.88
2022-11-16T09:05:24.710Z,3.65
2022-11-16T09:07:51.400Z,2.60
2022-11-16T09:10:18.145Z,6.07
2022-11-16T09:12:44.837Z,8.80
2022-11-16T09:15:11.579Z,2.58
2022-11-16T09:17:38.246Z,3.45
2022-11-16T09:20:05.518Z,2.58
2022-11-16T09:22:32.202Z,3.70
2022-11-16T09:24:58.956Z,6.03
2022-11-16T09:27:25.643Z,1.40
2022-11-16T09:29:52.352Z,13.25
2022-11-16T09:32:19.036Z,7.55
2022-11-16T09:34:45.782Z,10.25
2022-11-16T09:37:12.450Z,5.30
2022-11-16T09:39:39.136Z,3.88
2022-11-16T09:42:07.197Z,6.18
2022-11-16T09:44:46.142Z,3.50
2022-11-16T09:47:23.644Z,2.58
2022-11-16T09:49:59.788Z,26.70
2022-11-16T09:52:33.175Z,7.95
2022-11-16T09:55:03.313Z,4.93
2022-11-16T09:57:33.641Z,2.20
2022-11-16T10:00:09.575Z,3.17
2022-11-16T10:02:48.154Z,4.32
2022-11-16T10:05:23.111Z,10.95
2022-11-16T10:07:58.919Z,3.30
2022-11-16T10:10:34.402Z,9.77
2022-11-16T10:13:19.404Z,21.92
2022-11-16T10:15:50.671Z,16.42
2022-11-16T10:18:29.591Z,8.77
2022-11-16T10:21:07.465Z,6.97
2022-11-16T10:23:53.181Z,10.05
2022-11-16T10:26:55.281Z,3.28
2022-11-16T10:29:40.949Z,13.35
2022-11-16T10:32:15.358Z,7.00
2022-11-16T10:34:55.232Z,10.25
2022-11-16T10:37:22.342Z,8.70
2022-11-16T10:39:50.125Z,3.92
2022-11-16T10:42:19.806Z,5.05
2022-11-16T10:45:09.856Z,1.17
2022-11-16T10:47:38.994Z,12.27
2022-11-16T10:50:22.341Z,5.28
2022-11-16T10:52:49.010Z,4.63
2022-11-16T10:55:15.779Z,5.20
2022-11-16T10:57:57.654Z,5.55
2022-11-16T11:00:33.343Z,6.18
2022-11-16T11:03:00.452Z,3.13
2022-11-16T11:05:27.128Z,1.90
2022-11-16T11:08:00.837Z,8.35
2022-11-16T11:10:34.278Z,11.80
2022-11-16T11:13:22.289Z,20.10
2022-11-16T11:15:48.937Z,9.35
2022-11-16T11:18:15.607Z,12.95
2022-11-16T11:20:45.333Z,21.35
2022-11-16T11:23:15.683Z,4.10
2022-11-16T11:25:58.165Z,5.22
2022-11-16T11:28:32.173Z,4.72
2022-11-16T11:31:02.850Z,7.97
2022-11-16T11:33:41.591Z,3.83
2022-11-16T11:36:24.600Z,2.53
2022-11-16T11:39:26.549Z,4.10
2022-11-16T11:42:14.464Z,0.85
2022-11-16T11:44:46.582Z,5.13
2022-11-16T11:50:36.025Z,6.65
2022-11-16T11:53:38.044Z,3.17
2022-11-16T11:56:04.998Z,7.53
2022-11-16T11:58:39.822Z,4.75
2022-11-16T12:01:17.428Z,36.00
2022-11-16T12:04:06.372Z,10.35
2022-11-16T12:06:38.728Z,3.85
2022-11-16T12:09:15.098Z,7.53
2022-11-16T12:11:56.827Z,59.17
2022-11-16T12:14:29.380Z,4.35
2022-11-16T12:19:44.525Z,14.60
2022-11-16T12:22:28.943Z,16.30
2022-11-16T12:25:01.567Z,9.35
2022-11-16T12:30:11.480Z,9.75
2022-11-16T12:32:42.007Z,6.72
2022-11-16T12:35:45.538Z,2.88
2022-11-16T12:38:37.886Z,3.85
2022-11-16T12:41:21.417Z,5.97
2022-11-16T12:44:11.320Z,8.23
2022-11-16T12:47:09.226Z,10.48
2022-11-16T12:49:54.141Z,46.33
2022-11-16T12:52:41.504Z,51.30
2022-11-16T12:55:40.739Z,7.78
2022-11-16T12:58:16.396Z,10.43
2022-11-16T13:01:15.688Z,7.20
2022-11-16T13:03:47.508Z,137.93
2022-11-16T13:06:51.940Z,137.27
2022-11-16T13:09:40.532Z,18.17
2022-11-16T13:12:09.963Z,6.53
2022-11-16T13:14:42.771Z,7.43
2022-11-16T13:17:14.445Z,9.65
2022-11-16T13:19:41.617Z,10.30
2022-11-16T13:22:11.994Z,15.43
2022-11-16T13:24:53.712Z,11.68
2022-11-16T13:27:47.410Z,7.95
2022-11-16T13:30:20.887Z,11.68
2022-11-16T13:33:18.567Z,3.50
2022-11-16T13:35:45.232Z,5.68
2022-11-16T13:38:12.449Z,5.88
2022-11-16T13:40:39.244Z,16.25
2022-11-16T13:43:14.554Z,5.60
2022-11-16T13:45:48.413Z,3.70
2022-11-16T13:48:26.932Z,6.07
2022-11-16T13:50:58.296Z,5.25
2022-11-16T13:56:16.891Z,4.18
2022-11-16T13:58:48.753Z,5.45
2022-11-16T14:01:15.897Z,8.83
2022-11-16T14:03:52.231Z,8.25
2022-11-16T14:06:24.946Z,6.47
2022-11-16T14:11:39.332Z,10.00
2022-11-16T14:14:12.958Z,3.45
2022-11-16T14:16:44.678Z,14.30
2022-11-16T14:19:45.443Z,20.13
2022-11-16T14:22:35.254Z,15.90
2022-11-16T14:25:02.912Z,7.85
2022-11-16T14:27:52.806Z,5.93
2022-11-16T14:30:32.930Z,4.63
2022-11-16T14:32:59.640Z,7.00
2022-11-16T14:35:52.355Z,12.57
2022-11-16T14:38:29.091Z,4.85
2022-11-16T14:40:59.341Z,5.10
2022-11-16T14:43:40.164Z,7.13
2022-11-16T14:46:09.134Z,15.27
2022-11-16T14:48:43.184Z,7.63
2022-11-16T14:51:12.580Z,10.98
2022-11-16T14:53:41.894Z,7.20
2022-11-16T14:56:13.493Z,7.38
2022-11-16T14:58:40.306Z,11.43
2022-11-16T15:01:12.208Z,10.75
2022-11-16T15:04:15.099Z,13.82
2022-11-16T15:06:56.003Z,8.35
2022-11-16T15:09:38.017Z,13.57
2022-11-16T15:12:05.670Z,7.45
2022-11-16T15:14:34.420Z,6.68
2022-11-16T15:17:01.098Z,13.80
2022-11-16T15:19:30.811Z,7.82
2022-11-16T15:22:01.613Z,6.45
2022-11-16T15:24:31.762Z,9.18
2022-11-16T15:27:36.439Z,9.77
2022-11-16T15:30:12.503Z,14.32
2022-11-16T15:32:46.390Z,15.70
2022-11-16T15:35:23.185Z,18.33
2022-11-16T15:38:06.119Z,14.35
2022-11-16T15:40:33.428Z,13.02
2022-11-16T15:43:01.248Z,17.70
2022-11-16T15:45:27.932Z,27.80
2022-11-16T15:47:54.705Z,9.88
2022-11-16T15:50:22.177Z,17.52
2022-11-16T15:52:50.327Z,15.45
2022-11-16T15:55:21.068Z,10.07
2022-11-16T15:58:17.096Z,16.33
2022-11-16T16:00:47.193Z,17.58
2022-11-16T16:03:24.111Z,14.77
2022-11-16T16:05:50.897Z,19.42
2022-11-16T16:08:27.828Z,18.15
2022-11-16T16:11:15.022Z,8.77
2022-11-16T16:13:43.404Z,21.50
2022-11-16T16:16:23.670Z,7.65
2022-11-16T16:18:50.697Z,7.15
2022-11-16T16:21:17.384Z,20.55
2022-11-16T16:23:51.659Z,9.82
2022-11-16T16:26:18.454Z,13.50
2022-11-16T16:28:45.191Z,36.92
2022-11-16T16:31:11.994Z,15.57
2022-11-16T16:33:38.916Z,22.00
2022-11-16T16:36:06.176Z,24.30
2022-11-16T16:38:32.902Z,11.57
2022-11-16T16:41:00.782Z,18.00
2022-11-16T16:43:27.510Z,15.65
2022-11-16T16:45:54.284Z,18.33
2022-11-16T16:48:21.032Z,19.13
2022-11-16T16:50:47.809Z,24.05
2022-11-16T16:53:14.766Z,24.65
2022-11-16T16:55:42.051Z,21.58
2022-11-16T16:58:11.504Z,25.27
2022-11-16T17:00:38.387Z,6.35
2022-11-16T17:03:05.150Z,14.48
2022-11-16T17:05:31.831Z,11.00
2022-11-16T17:07:58.529Z,9.50
2022-11-16T17:10:25.241Z,18.90
2022-11-16T17:12:55.720Z,14.82
2022-11-16T17:15:23.021Z,18.48
2022-11-16T17:17:49.763Z,14.85
2022-11-16T17:20:16.566Z,13.10
2022-11-16T17:22:43.485Z,14.82
2022-11-16T17:25:10.266Z,13.82
2022-11-16T17:27:36.947Z,17.23
2022-11-16T17:30:04.214Z,14.38
2022-11-16T17:32:30.903Z,24.98
2022-11-16T17:34:57.598Z,13.77
2022-11-16T17:37:24.296Z,9.93
2022-11-16T17:39:50.969Z,11.02
2022-11-16T17:42:17.632Z,4.97
2022-11-16T17:44:44.485Z,12.98
2022-11-16T17:47:11.191Z,12.90
2022-11-16T17:49:37.892Z,19.88
2022-11-16T17:52:04.695Z,17.63
2022-11-16T17:54:31.403Z,19.98
2022-11-16T17:56:58.068Z,16.25
2022-11-16T17:59:29.252Z,22.70
2022-11-16T18:01:57.029Z,10.83
2022-11-16T18:04:23.723Z,23.13
2022-11-16T18:06:50.460Z,6.70
2022-11-16T18:09:17.178Z,45.45
2022-11-16T18:11:43.992Z,11.88
2022-11-16T18:14:10.691Z,36.67
2022-11-16T18:16:37.405Z,20.00
2022-11-16T18:19:05.280Z,7.53
2022-11-16T18:21:32.317Z,6.40
2022-11-16T18:23:59.335Z,11.18
2022-11-16T18:26:26.041Z,10.70
2022-11-16T18:28:52.890Z,8.85
2022-11-16T18:31:21.788Z,8.30
2022-11-16T18:33:48.531Z,13.00
2022-11-16T18:36:15.376Z,21.70
2022-11-16T18:38:42.067Z,14.88
2022-11-16T18:41:11.652Z,4.57
2022-11-16T18:43:52.625Z,11.50
2022-11-16T18:46:30.043Z,18.60
2022-11-16T18:48:56.840Z,18.90
2022-11-16T18:51:24.278Z,11.57
2022-11-16T18:53:51.024Z,12.32
2022-11-16T18:56:17.879Z,4.50
2022-11-16T18:58:52.930Z,42.28
2022-11-16T19:01:22.152Z,7.72
2022-11-16T19:03:49.308Z,22.25
2022-11-16T19:06:16.026Z,12.68
2022-11-16T19:08:43.575Z,9.38
2022-11-16T19:11:14.607Z,10.77
2022-11-16T19:13:41.986Z,5.57
2022-11-16T19:16:09.375Z,31.60
2022-11-16T19:18:36.803Z,19.15
2022-11-16T19:21:04.510Z,10.70
2022-11-16T19:23:48.590Z,13.50
2022-11-16T19:26:16.112Z,10.13
2022-11-16T19:28:44.060Z,49.92
2022-11-16T19:31:11.627Z,15.07
2022-11-16T19:33:38.666Z,13.52
2022-11-16T19:36:13.336Z,18.30
2022-11-16T19:38:42.361Z,20.55
2022-11-16T19:41:10.831Z,13.18
2022-11-16T19:43:37.701Z,8.88
2022-11-16T19:46:06.045Z,16.73
2022-11-16T19:48:32.887Z,13.45
2022-11-16T19:51:10.160Z,18.05
2022-11-16T19:53:37.332Z,13.48
2022-11-16T19:56:04.749Z,6.57
2022-11-16T19:58:31.499Z,9.55
2022-11-16T20:01:06.056Z,14.65
2022-11-16T20:03:33.383Z,19.65
2022-11-16T20:06:05.240Z,26.80
2022-11-16T20:08:31.909Z,4.70
2022-11-16T20:10:58.594Z,3.08
2022-11-16T20:13:25.415Z,7.20
2022-11-16T20:15:52.241Z,10.85
2022-11-16T20:18:18.902Z,9.27
2022-11-16T20:20:45.568Z,10.50
2022-11-16T20:23:15.655Z,9.05
2022-11-16T20:25:42.398Z,8.63
2022-11-16T20:28:09.060Z,1.73
2022-11-16T20:30:35.797Z,11.25
2022-11-16T20:33:02.458Z,7.18
2022-11-16T20:35:29.246Z,26.63
2022-11-16T20:37:55.917Z,5.07
2022-11-16T20:40:22.685Z,4.22
2022-11-16T20:42:49.387Z,14.18
2022-11-16T20:45:16.190Z,4.03
2022-11-16T20:47:42.894Z,10.07
2022-11-16T20:50:09.821Z,14.55
2022-11-16T20:52:41.253Z,3.45
2022-11-16T20:55:10.060Z,3.10
2022-11-16T20:57:36.863Z,15.85
2022-11-16T21:00:04.495Z,6.72
2022-11-16T21:02:31.408Z,2.30
2022-11-16T21:05:00.360Z,4.88
2022-11-16T21:07:27.350Z,13.10
2022-11-16T21:09:54.155Z,8.88
2022-11-16T21:12:20.836Z,13.32
2022-11-16T21:14:47.625Z,7.15
2022-11-16T21:17:14.535Z,11.52
2022-11-16T21:19:54.249Z,2.00
2022-11-16T21:22:32.146Z,13.15
2022-11-16T21:24:59.587Z,15.45
2022-11-16T21:27:26.256Z,14.60
2022-11-16T21:29:52.941Z,4.15
2022-11-16T21:32:19.652Z,7.90
2022-11-16T21:34:46.381Z,3.67
2022-11-16T21:37:13.033Z,11.18
2022-11-16T21:39:39.729Z,21.30
2022-11-16T21:42:06.494Z,14.55
2022-11-16T21:44:33.176Z,10.07
2022-11-16T21:47:00.263Z,8.57
2022-11-16T21:49:27.061Z,15.05
2022-11-16T21:51:53.788Z,7.70
2022-11-16T21:54:20.510Z,11.85
2022-11-16T21:56:47.167Z,7.00
2022-11-16T21:59:13.950Z,7.85
2022-11-16T22:01:40.685Z,9.85
2022-11-16T22:04:07.441Z,14.13
2022-11-16T22:06:34.270Z,13.45
2022-11-16T22:09:00.982Z,6.00
2022-11-16T22:11:27.710Z,6.25
2022-11-16T22:13:54.383Z,11.38
2022-11-16T22:16:21.206Z,9.95
2022-11-16T22:18:47.865Z,18.50
2022-11-16T22:21:14.546Z,11.32
2022-11-16T22:23:41.665Z,23.45
2022-11-16T22:26:10.306Z,25.55
2022-11-16T22:28:37.035Z,14.05
2022-11-16T22:31:13.714Z,10.55
2022-11-16T22:33:40.728Z,16.35
2022-11-16T22:36:09.092Z,13.07
2022-11-16T22:38:35.959Z,54.25
2022-11-16T22:41:02.656Z,70.03
2022-11-16T22:43:29.888Z,37.88
2022-11-16T22:45:57.683Z,77.22
2022-11-16T22:48:31.863Z,26.67
2022-11-16T22:51:26.669Z,18.73
2022-11-16T22:53:57.700Z,17.92
2022-11-16T22:56:24.669Z,11.98
2022-11-16T22:58:51.553Z,10.15
2022-11-16T23:01:18.216Z,21.00
2022-11-16T23:03:45.177Z,15.90
2022-11-16T23:06:11.970Z,33.17
2022-11-16T23:08:38.751Z,12.50
2022-11-16T23:11:24.191Z,21.30
2022-11-16T23:13:51.965Z,20.30
2022-11-16T23:16:18.675Z,12.02
2022-11-16T23:18:45.382Z,20.10
2022-11-16T23:21:12.148Z,41.13
2022-11-16T23:23:38.833Z,26.45
2022-11-16T23:26:06.857Z,17.27
2022-11-16T23:28:33.553Z,32.72
2022-11-16T23:31:00.285Z,10.43
2022-11-16T23:33:27.027Z,12.73
2022-11-16T23:35:53.695Z,57.42
2022-11-16T23:38:20.469Z,17.35
2022-11-16T23:40:47.153Z,41.85
2022-11-16T23:43:13.966Z,16.85
2022-11-16T23:45:40.865Z,42.47
2022-11-16T23:48:08.343Z,42.33
2022-11-16T23:50:35.168Z,8.63
2022-11-16T23:53:01.948Z,13.73
2022-11-16T23:55:28.779Z,10.00
2022-11-16T23:57:55.476Z,11.13
